sensor_id;sensor_type;location;lat;lon;timestamp;P1;durP1;ratioP1;P2;durP2;ratioP2
79751;SDS011;69234;47.446;21.636;2023-08-31T00:00:07;9.47;;;9.47;;
79751;SDS011;69234;47.446;21.636;2023-08-31T00:00:40;9.37;;;9.37;;
79751;SDS011;69234;47.446;21.636;2023-08-31T00:01:12;9.87;;;9.87;;
79751;SDS011;69234;47.446;21.636;2023-08-31T00:01:44;10.10;;;10.10;;
79751;SDS011;69234;47.446;21.636;2023-08-31T00:02:15;9.70;;;9.70;;
79751;SDS011;69234;47.446;21.636;2023-08-31T00:02:45;8.97;;;8.97;;
79751;SDS011;69234;47.446;21.636;2023-08-31T00:03:16;9.43;;;9.43;;
79751;SDS011;69234;47.446;21.636;2023-08-31T00:03:48;9.07;;;9.07;;
79751;SDS011;69234;47.446;21.636;2023-08-31T00:04:19;9.43;;;9.43;;
79751;SDS011;69234;47.446;21.636;2023-08-31T00:04:53;9.37;;;9.37;;
79751;SDS011;69234;47.446;21.636;2023-08-31T00:05:24;8.77;;;8.77;;
79751;SDS011;69234;47.446;21.636;2023-08-31T00:05:57;8.60;;;8.60;;
79751;SDS011;69234;47.446;21.636;2023-08-31T00:06:31;9.80;;;9.80;;
79751;SDS011;69234;47.446;21.636;2023-08-31T00:07:04;9.80;;;9.80;;
79751;SDS011;69234;47.446;21.636;2023-08-31T00:07:35;8.70;;;8.70;;
79751;SDS011;69234;47.446;21.636;2023-08-31T00:08:07;8.57;;;8.57;;
79751;SDS011;69234;47.446;21.636;2023-08-31T00:08:39;8.90;;;8.90;;
79751;SDS011;69234;47.446;21.636;2023-08-31T00:09:11;9.63;;;9.63;;
79751;SDS011;69234;47.446;21.636;2023-08-31T00:09:42;9.63;;;9.63;;
79751;SDS011;69234;47.446;21.636;2023-08-31T00:10:13;9.43;;;9.43;;
79751;SDS011;69234;47.446;21.636;2023-08-31T00:10:54;10.03;;;10.03;;
79751;SDS011;69234;47.446;21.636;2023-08-31T00:11:28;9.77;;;9.77;;
79751;SDS011;69234;47.446;21.636;2023-08-31T00:12:01;9.27;;;9.27;;
79751;SDS011;69234;47.446;21.636;2023-08-31T00:12:32;8.73;;;8.73;;
79751;SDS011;69234;47.446;21.636;2023-08-31T00:13:04;9.17;;;9.17;;
79751;SDS011;69234;47.446;21.636;2023-08-31T00:13:38;9.43;;;9.43;;
79751;SDS011;69234;47.446;21.636;2023-08-31T00:14:09;9.87;;;9.87;;
79751;SDS011;69234;47.446;21.636;2023-08-31T00:14:40;10.00;;;10.00;;
79751;SDS011;69234;47.446;21.636;2023-08-31T00:15:11;10.13;;;10.13;;
79751;SDS011;69234;47.446;21.636;2023-08-31T00:15:43;9.77;;;9.77;;
79751;SDS011;69234;47.446;21.636;2023-08-31T00:16:16;9.13;;;9.13;;
79751;SDS011;69234;47.446;21.636;2023-08-31T00:16:47;9.37;;;9.37;;
79751;SDS011;69234;47.446;21.636;2023-08-31T00:17:18;9.40;;;9.40;;
79751;SDS011;69234;47.446;21.636;2023-08-31T00:17:49;9.37;;;9.37;;
79751;SDS011;69234;47.446;21.636;2023-08-31T00:18:20;8.63;;;8.63;;
79751;SDS011;69234;47.446;21.636;2023-08-31T00:18:51;8.90;;;8.90;;
79751;SDS011;69234;47.446;21.636;2023-08-31T00:19:23;9.27;;;9.27;;
79751;SDS011;69234;47.446;21.636;2023-08-31T00:19:54;9.43;;;9.43;;
79751;SDS011;69234;47.446;21.636;2023-08-31T00:20:25;9.40;;;9.40;;
79751;SDS011;69234;47.446;21.636;2023-08-31T00:20:57;9.33;;;9.33;;
79751;SDS011;69234;47.446;21.636;2023-08-31T00:21:28;9.97;;;9.97;;
79751;SDS011;69234;47.446;21.636;2023-08-31T00:22:00;9.83;;;9.83;;
79751;SDS011;69234;47.446;21.636;2023-08-31T00:22:31;10.27;;;10.27;;
79751;SDS011;69234;47.446;21.636;2023-08-31T00:23:03;9.70;;;9.70;;
79751;SDS011;69234;47.446;21.636;2023-08-31T00:23:34;9.73;;;9.73;;
79751;SDS011;69234;47.446;21.636;2023-08-31T00:24:05;10.00;;;10.00;;
79751;SDS011;69234;47.446;21.636;2023-08-31T00:24:36;9.40;;;9.40;;
79751;SDS011;69234;47.446;21.636;2023-08-31T00:25:07;9.20;;;9.20;;
79751;SDS011;69234;47.446;21.636;2023-08-31T00:25:38;9.93;;;9.93;;
79751;SDS011;69234;47.446;21.636;2023-08-31T00:26:09;10.37;;;10.37;;
79751;SDS011;69234;47.446;21.636;2023-08-31T00:26:40;9.37;;;9.37;;
79751;SDS011;69234;47.446;21.636;2023-08-31T00:27:12;9.90;;;9.90;;
79751;SDS011;69234;47.446;21.636;2023-08-31T00:27:47;9.67;;;9.67;;
79751;SDS011;69234;47.446;21.636;2023-08-31T00:28:18;9.53;;;9.53;;
79751;SDS011;69234;47.446;21.636;2023-08-31T00:28:50;9.80;;;9.80;;
79751;SDS011;69234;47.446;21.636;2023-08-31T00:29:20;9.77;;;9.77;;
79751;SDS011;69234;47.446;21.636;2023-08-31T00:29:53;10.13;;;10.13;;
79751;SDS011;69234;47.446;21.636;2023-08-31T00:30:27;9.47;;;9.47;;
79751;SDS011;69234;47.446;21.636;2023-08-31T00:31:02;9.50;;;9.50;;
79751;SDS011;69234;47.446;21.636;2023-08-31T00:31:33;9.63;;;9.63;;
79751;SDS011;69234;47.446;21.636;2023-08-31T00:32:04;9.80;;;9.80;;
79751;SDS011;69234;47.446;21.636;2023-08-31T00:32:36;9.33;;;9.33;;
79751;SDS011;69234;47.446;21.636;2023-08-31T00:33:10;9.70;;;9.70;;
79751;SDS011;69234;47.446;21.636;2023-08-31T00:33:44;9.60;;;9.60;;
79751;SDS011;69234;47.446;21.636;2023-08-31T00:34:16;9.37;;;9.37;;
79751;SDS011;69234;47.446;21.636;2023-08-31T00:34:48;9.77;;;9.77;;
79751;SDS011;69234;47.446;21.636;2023-08-31T00:35:19;10.23;;;10.23;;
79751;SDS011;69234;47.446;21.636;2023-08-31T00:35:50;9.73;;;9.73;;
79751;SDS011;69234;47.446;21.636;2023-08-31T00:36:21;9.90;;;9.90;;
79751;SDS011;69234;47.446;21.636;2023-08-31T00:36:53;9.63;;;9.63;;
79751;SDS011;69234;47.446;21.636;2023-08-31T00:37:24;9.97;;;9.97;;
79751;SDS011;69234;47.446;21.636;2023-08-31T00:37:55;10.77;;;10.77;;
79751;SDS011;69234;47.446;21.636;2023-08-31T00:38:29;9.70;;;9.70;;
79751;SDS011;69234;47.446;21.636;2023-08-31T00:39:04;9.53;;;9.53;;
79751;SDS011;69234;47.446;21.636;2023-08-31T00:39:42;10.83;;;10.83;;
79751;SDS011;69234;47.446;21.636;2023-08-31T00:40:13;10.53;;;10.53;;
79751;SDS011;69234;47.446;21.636;2023-08-31T00:40:46;11.00;;;11.00;;
79751;SDS011;69234;47.446;21.636;2023-08-31T00:41:17;10.17;;;10.17;;
79751;SDS011;69234;47.446;21.636;2023-08-31T00:41:48;9.73;;;9.73;;
79751;SDS011;69234;47.446;21.636;2023-08-31T00:42:20;10.87;;;10.87;;
79751;SDS011;69234;47.446;21.636;2023-08-31T00:42:52;10.93;;;10.93;;
79751;SDS011;69234;47.446;21.636;2023-08-31T00:43:23;9.53;;;9.53;;
79751;SDS011;69234;47.446;21.636;2023-08-31T00:43:54;9.70;;;9.70;;
79751;SDS011;69234;47.446;21.636;2023-08-31T00:44:25;9.63;;;9.63;;
79751;SDS011;69234;47.446;21.636;2023-08-31T00:44:56;10.13;;;10.13;;
79751;SDS011;69234;47.446;21.636;2023-08-31T00:45:27;10.10;;;10.10;;
79751;SDS011;69234;47.446;21.636;2023-08-31T00:45:58;9.97;;;9.97;;
79751;SDS011;69234;47.446;21.636;2023-08-31T00:46:29;9.83;;;9.83;;
79751;SDS011;69234;47.446;21.636;2023-08-31T00:47:01;9.73;;;9.73;;
79751;SDS011;69234;47.446;21.636;2023-08-31T00:47:33;10.23;;;10.23;;
79751;SDS011;69234;47.446;21.636;2023-08-31T00:48:04;10.93;;;10.93;;
79751;SDS011;69234;47.446;21.636;2023-08-31T00:48:35;10.30;;;10.30;;
79751;SDS011;69234;47.446;21.636;2023-08-31T00:49:07;10.77;;;10.77;;
79751;SDS011;69234;47.446;21.636;2023-08-31T00:49:40;10.40;;;10.40;;
79751;SDS011;69234;47.446;21.636;2023-08-31T00:50:11;10.50;;;10.50;;
79751;SDS011;69234;47.446;21.636;2023-08-31T00:50:45;11.13;;;11.13;;
79751;SDS011;69234;47.446;21.636;2023-08-31T00:51:17;10.23;;;10.23;;
79751;SDS011;69234;47.446;21.636;2023-08-31T00:51:48;10.00;;;10.00;;
79751;SDS011;69234;47.446;21.636;2023-08-31T00:52:20;9.83;;;9.83;;
79751;SDS011;69234;47.446;21.636;2023-08-31T00:52:52;9.67;;;9.67;;
79751;SDS011;69234;47.446;21.636;2023-08-31T00:53:23;10.10;;;10.10;;
79751;SDS011;69234;47.446;21.636;2023-08-31T00:53:55;11.10;;;11.10;;
79751;SDS011;69234;47.446;21.636;2023-08-31T00:54:29;10.90;;;10.90;;
79751;SDS011;69234;47.446;21.636;2023-08-31T00:55:00;11.00;;;11.00;;
79751;SDS011;69234;47.446;21.636;2023-08-31T00:55:35;10.73;;;10.73;;
79751;SDS011;69234;47.446;21.636;2023-08-31T00:56:07;11.20;;;11.20;;
79751;SDS011;69234;47.446;21.636;2023-08-31T00:56:38;10.83;;;10.83;;
79751;SDS011;69234;47.446;21.636;2023-08-31T00:57:09;10.87;;;10.87;;
79751;SDS011;69234;47.446;21.636;2023-08-31T00:57:40;11.03;;;11.03;;
79751;SDS011;69234;47.446;21.636;2023-08-31T00:58:12;10.30;;;10.30;;
79751;SDS011;69234;47.446;21.636;2023-08-31T00:58:43;9.83;;;9.83;;
79751;SDS011;69234;47.446;21.636;2023-08-31T00:59:13;10.03;;;10.03;;
79751;SDS011;69234;47.446;21.636;2023-08-31T00:59:46;10.00;;;10.00;;
79751;SDS011;69234;47.446;21.636;2023-08-31T01:00:17;9.87;;;9.87;;
79751;SDS011;69234;47.446;21.636;2023-08-31T01:01:49;10.40;;;10.40;;
79751;SDS011;69234;47.446;21.636;2023-08-31T01:05:33;10.17;;;10.17;;
79751;SDS011;69234;47.446;21.636;2023-08-31T01:06:34;9.57;;;9.57;;
79751;SDS011;69234;47.446;21.636;2023-08-31T01:07:34;10.30;;;10.30;;
79751;SDS011;69234;47.446;21.636;2023-08-31T01:08:22;11.13;;;11.13;;
79751;SDS011;69234;47.446;21.636;2023-08-31T01:10:22;11.13;;;11.13;;
79751;SDS011;69234;47.446;21.636;2023-08-31T01:11:08;10.80;;;10.80;;
79751;SDS011;69234;47.446;21.636;2023-08-31T01:12:47;9.97;;;9.97;;
79751;SDS011;69234;47.446;21.636;2023-08-31T01:13:24;10.67;;;10.67;;
79751;SDS011;69234;47.446;21.636;2023-08-31T01:14:06;9.83;;;9.83;;
79751;SDS011;69234;47.446;21.636;2023-08-31T01:14:50;11.13;;;11.13;;
79751;SDS011;69234;47.446;21.636;2023-08-31T01:15:30;10.63;;;10.63;;
79751;SDS011;69234;47.446;21.636;2023-08-31T01:16:03;10.53;;;10.53;;
79751;SDS011;69234;47.446;21.636;2023-08-31T01:16:38;10.30;;;10.30;;
79751;SDS011;69234;47.446;21.636;2023-08-31T01:17:14;10.33;;;10.33;;
79751;SDS011;69234;47.446;21.636;2023-08-31T01:17:48;10.20;;;10.20;;
79751;SDS011;69234;47.446;21.636;2023-08-31T01:18:24;9.93;;;9.93;;
79751;SDS011;69234;47.446;21.636;2023-08-31T01:19:00;10.87;;;10.87;;
79751;SDS011;69234;47.446;21.636;2023-08-31T01:20:16;10.13;;;10.13;;
79751;SDS011;69234;47.446;21.636;2023-08-31T01:21:50;10.47;;;10.47;;
79751;SDS011;69234;47.446;21.636;2023-08-31T01:22:40;10.70;;;10.70;;
79751;SDS011;69234;47.446;21.636;2023-08-31T01:24:23;10.57;;;10.57;;
79751;SDS011;69234;47.446;21.636;2023-08-31T01:24:55;10.60;;;10.60;;
79751;SDS011;69234;47.446;21.636;2023-08-31T01:25:29;10.20;;;10.20;;
79751;SDS011;69234;47.446;21.636;2023-08-31T01:26:02;9.63;;;9.63;;
79751;SDS011;69234;47.446;21.636;2023-08-31T01:26:34;10.77;;;10.77;;
79751;SDS011;69234;47.446;21.636;2023-08-31T01:27:05;11.20;;;11.20;;
79751;SDS011;69234;47.446;21.636;2023-08-31T01:27:37;11.20;;;11.20;;
79751;SDS011;69234;47.446;21.636;2023-08-31T01:28:10;10.77;;;10.77;;
79751;SDS011;69234;47.446;21.636;2023-08-31T01:28:42;10.77;;;10.77;;
79751;SDS011;69234;47.446;21.636;2023-08-31T01:29:13;11.30;;;11.30;;
79751;SDS011;69234;47.446;21.636;2023-08-31T01:29:45;11.27;;;11.27;;
79751;SDS011;69234;47.446;21.636;2023-08-31T01:30:16;10.47;;;10.47;;
79751;SDS011;69234;47.446;21.636;2023-08-31T01:30:47;10.70;;;10.70;;
79751;SDS011;69234;47.446;21.636;2023-08-31T01:31:18;10.63;;;10.63;;
79751;SDS011;69234;47.446;21.636;2023-08-31T01:31:51;10.93;;;10.93;;
79751;SDS011;69234;47.446;21.636;2023-08-31T01:32:22;10.80;;;10.80;;
79751;SDS011;69234;47.446;21.636;2023-08-31T01:32:53;11.03;;;11.03;;
79751;SDS011;69234;47.446;21.636;2023-08-31T01:33:24;10.93;;;10.93;;
79751;SDS011;69234;47.446;21.636;2023-08-31T01:33:54;11.20;;;11.20;;
79751;SDS011;69234;47.446;21.636;2023-08-31T01:34:27;11.20;;;11.20;;
79751;SDS011;69234;47.446;21.636;2023-08-31T01:34:58;11.57;;;11.57;;
79751;SDS011;69234;47.446;21.636;2023-08-31T01:35:40;11.77;;;11.77;;
79751;SDS011;69234;47.446;21.636;2023-08-31T01:36:30;11.47;;;11.47;;
79751;SDS011;69234;47.446;21.636;2023-08-31T01:37:11;11.00;;;11.00;;
79751;SDS011;69234;47.446;21.636;2023-08-31T01:38:28;10.83;;;10.83;;
79751;SDS011;69234;47.446;21.636;2023-08-31T01:39:26;11.03;;;11.03;;
79751;SDS011;69234;47.446;21.636;2023-08-31T01:40:23;11.03;;;11.03;;
79751;SDS011;69234;47.446;21.636;2023-08-31T01:41:10;11.27;;;11.27;;
79751;SDS011;69234;47.446;21.636;2023-08-31T01:41:49;10.97;;;10.97;;
79751;SDS011;69234;47.446;21.636;2023-08-31T01:42:28;11.40;;;11.40;;
79751;SDS011;69234;47.446;21.636;2023-08-31T01:43:03;10.90;;;10.90;;
79751;SDS011;69234;47.446;21.636;2023-08-31T01:43:37;11.27;;;11.27;;
79751;SDS011;69234;47.446;21.636;2023-08-31T01:44:13;10.87;;;10.87;;
79751;SDS011;69234;47.446;21.636;2023-08-31T01:44:48;11.73;;;11.73;;
79751;SDS011;69234;47.446;21.636;2023-08-31T01:45:20;11.13;;;11.13;;
79751;SDS011;69234;47.446;21.636;2023-08-31T01:45:52;11.33;;;11.33;;
79751;SDS011;69234;47.446;21.636;2023-08-31T01:46:24;10.43;;;10.43;;
79751;SDS011;69234;47.446;21.636;2023-08-31T01:47:01;11.03;;;11.03;;
79751;SDS011;69234;47.446;21.636;2023-08-31T01:47:38;11.37;;;11.37;;
79751;SDS011;69234;47.446;21.636;2023-08-31T01:48:09;11.23;;;11.23;;
79751;SDS011;69234;47.446;21.636;2023-08-31T01:48:40;11.40;;;11.40;;
79751;SDS011;69234;47.446;21.636;2023-08-31T01:49:11;11.97;;;11.97;;
79751;SDS011;69234;47.446;21.636;2023-08-31T01:49:43;11.73;;;11.73;;
79751;SDS011;69234;47.446;21.636;2023-08-31T01:50:13;11.60;;;11.60;;
79751;SDS011;69234;47.446;21.636;2023-08-31T01:50:44;11.17;;;11.17;;
79751;SDS011;69234;47.446;21.636;2023-08-31T01:51:17;11.30;;;11.30;;
79751;SDS011;69234;47.446;21.636;2023-08-31T01:51:48;12.37;;;12.37;;
79751;SDS011;69234;47.446;21.636;2023-08-31T01:52:19;12.20;;;12.20;;
79751;SDS011;69234;47.446;21.636;2023-08-31T01:52:50;11.37;;;11.37;;
79751;SDS011;69234;47.446;21.636;2023-08-31T01:53:25;11.73;;;11.73;;
79751;SDS011;69234;47.446;21.636;2023-08-31T01:53:56;12.20;;;12.20;;
79751;SDS011;69234;47.446;21.636;2023-08-31T01:54:29;12.30;;;12.30;;
79751;SDS011;69234;47.446;21.636;2023-08-31T01:55:00;11.90;;;11.90;;
79751;SDS011;69234;47.446;21.636;2023-08-31T01:55:31;11.63;;;11.63;;
79751;SDS011;69234;47.446;21.636;2023-08-31T01:56:03;11.07;;;11.07;;
79751;SDS011;69234;47.446;21.636;2023-08-31T01:56:35;11.77;;;11.77;;
79751;SDS011;69234;47.446;21.636;2023-08-31T01:57:06;12.07;;;12.07;;
79751;SDS011;69234;47.446;21.636;2023-08-31T01:57:37;13.00;;;13.00;;
79751;SDS011;69234;47.446;21.636;2023-08-31T01:58:21;12.23;;;12.23;;
79751;SDS011;69234;47.446;21.636;2023-08-31T01:58:53;12.13;;;12.13;;
79751;SDS011;69234;47.446;21.636;2023-08-31T01:59:23;11.83;;;11.83;;
79751;SDS011;69234;47.446;21.636;2023-08-31T01:59:54;11.37;;;11.37;;
79751;SDS011;69234;47.446;21.636;2023-08-31T02:00:25;11.80;;;11.80;;
79751;SDS011;69234;47.446;21.636;2023-08-31T02:00:56;11.57;;;11.57;;
79751;SDS011;69234;47.446;21.636;2023-08-31T02:01:27;11.90;;;11.90;;
79751;SDS011;69234;47.446;21.636;2023-08-31T02:01:59;11.90;;;11.90;;
79751;SDS011;69234;47.446;21.636;2023-08-31T02:02:30;11.80;;;11.80;;
79751;SDS011;69234;47.446;21.636;2023-08-31T02:03:01;11.90;;;11.90;;
79751;SDS011;69234;47.446;21.636;2023-08-31T02:03:32;12.50;;;12.50;;
79751;SDS011;69234;47.446;21.636;2023-08-31T02:04:03;12.90;;;12.90;;
79751;SDS011;69234;47.446;21.636;2023-08-31T02:04:35;11.73;;;11.73;;
79751;SDS011;69234;47.446;21.636;2023-08-31T02:05:06;12.13;;;12.13;;
79751;SDS011;69234;47.446;21.636;2023-08-31T02:05:38;11.87;;;11.87;;
79751;SDS011;69234;47.446;21.636;2023-08-31T02:06:09;11.10;;;11.10;;
79751;SDS011;69234;47.446;21.636;2023-08-31T02:06:40;11.57;;;11.57;;
79751;SDS011;69234;47.446;21.636;2023-08-31T02:07:11;11.53;;;11.53;;
79751;SDS011;69234;47.446;21.636;2023-08-31T02:07:42;11.70;;;11.70;;
79751;SDS011;69234;47.446;21.636;2023-08-31T02:08:13;11.53;;;11.53;;
79751;SDS011;69234;47.446;21.636;2023-08-31T02:08:48;12.50;;;12.50;;
79751;SDS011;69234;47.446;21.636;2023-08-31T02:09:22;12.33;;;12.33;;
79751;SDS011;69234;47.446;21.636;2023-08-31T02:09:52;12.20;;;12.20;;
79751;SDS011;69234;47.446;21.636;2023-08-31T02:10:23;12.60;;;12.60;;
79751;SDS011;69234;47.446;21.636;2023-08-31T02:10:54;12.10;;;12.10;;
79751;SDS011;69234;47.446;21.636;2023-08-31T02:11:27;12.33;;;12.33;;
79751;SDS011;69234;47.446;21.636;2023-08-31T02:11:59;12.70;;;12.70;;
79751;SDS011;69234;47.446;21.636;2023-08-31T02:12:30;12.53;;;12.53;;
79751;SDS011;69234;47.446;21.636;2023-08-31T02:13:03;13.23;;;13.23;;
79751;SDS011;69234;47.446;21.636;2023-08-31T02:13:34;13.47;;;13.47;;
79751;SDS011;69234;47.446;21.636;2023-08-31T02:14:05;12.73;;;12.73;;
79751;SDS011;69234;47.446;21.636;2023-08-31T02:14:36;12.93;;;12.93;;
79751;SDS011;69234;47.446;21.636;2023-08-31T02:15:07;13.37;;;13.37;;
79751;SDS011;69234;47.446;21.636;2023-08-31T02:15:38;13.30;;;13.30;;
79751;SDS011;69234;47.446;21.636;2023-08-31T02:16:09;12.83;;;12.83;;
79751;SDS011;69234;47.446;21.636;2023-08-31T02:16:40;12.97;;;12.97;;
79751;SDS011;69234;47.446;21.636;2023-08-31T02:17:12;12.83;;;12.83;;
79751;SDS011;69234;47.446;21.636;2023-08-31T02:17:42;14.00;;;14.00;;
79751;SDS011;69234;47.446;21.636;2023-08-31T02:18:13;13.03;;;13.03;;
79751;SDS011;69234;47.446;21.636;2023-08-31T02:18:44;12.73;;;12.73;;
79751;SDS011;69234;47.446;21.636;2023-08-31T02:19:15;13.00;;;13.00;;
79751;SDS011;69234;47.446;21.636;2023-08-31T02:19:48;12.90;;;12.90;;
79751;SDS011;69234;47.446;21.636;2023-08-31T02:20:19;13.37;;;13.37;;
79751;SDS011;69234;47.446;21.636;2023-08-31T02:20:51;12.63;;;12.63;;
79751;SDS011;69234;47.446;21.636;2023-08-31T02:21:23;12.57;;;12.57;;
79751;SDS011;69234;47.446;21.636;2023-08-31T02:21:57;12.77;;;12.77;;
79751;SDS011;69234;47.446;21.636;2023-08-31T02:22:29;12.70;;;12.70;;
79751;SDS011;69234;47.446;21.636;2023-08-31T02:23:06;13.00;;;13.00;;
79751;SDS011;69234;47.446;21.636;2023-08-31T02:23:39;13.13;;;13.13;;
79751;SDS011;69234;47.446;21.636;2023-08-31T02:24:10;13.67;;;13.67;;
79751;SDS011;69234;47.446;21.636;2023-08-31T02:24:44;12.83;;;12.83;;
79751;SDS011;69234;47.446;21.636;2023-08-31T02:25:15;13.53;;;13.53;;
79751;SDS011;69234;47.446;21.636;2023-08-31T02:25:46;13.60;;;13.60;;
79751;SDS011;69234;47.446;21.636;2023-08-31T02:26:20;13.33;;;13.33;;
79751;SDS011;69234;47.446;21.636;2023-08-31T02:26:52;13.13;;;13.13;;
79751;SDS011;69234;47.446;21.636;2023-08-31T02:27:23;13.43;;;13.43;;
79751;SDS011;69234;47.446;21.636;2023-08-31T02:27:54;13.67;;;13.67;;
79751;SDS011;69234;47.446;21.636;2023-08-31T02:28:25;13.60;;;13.60;;
79751;SDS011;69234;47.446;21.636;2023-08-31T02:28:56;13.77;;;13.77;;
79751;SDS011;69234;47.446;21.636;2023-08-31T02:29:27;13.07;;;13.07;;
79751;SDS011;69234;47.446;21.636;2023-08-31T02:29:58;13.53;;;13.53;;
79751;SDS011;69234;47.446;21.636;2023-08-31T02:30:31;13.33;;;13.33;;
79751;SDS011;69234;47.446;21.636;2023-08-31T02:31:02;13.20;;;13.20;;
79751;SDS011;69234;47.446;21.636;2023-08-31T02:31:34;13.47;;;13.47;;
79751;SDS011;69234;47.446;21.636;2023-08-31T02:32:09;13.70;;;13.70;;
79751;SDS011;69234;47.446;21.636;2023-08-31T02:32:39;13.80;;;13.80;;
79751;SDS011;69234;47.446;21.636;2023-08-31T02:33:10;13.70;;;13.70;;
79751;SDS011;69234;47.446;21.636;2023-08-31T02:33:41;13.73;;;13.73;;
79751;SDS011;69234;47.446;21.636;2023-08-31T02:34:12;13.83;;;13.83;;
79751;SDS011;69234;47.446;21.636;2023-08-31T02:34:43;13.90;;;13.90;;
79751;SDS011;69234;47.446;21.636;2023-08-31T02:35:14;13.67;;;13.67;;
79751;SDS011;69234;47.446;21.636;2023-08-31T02:35:45;14.13;;;14.13;;
79751;SDS011;69234;47.446;21.636;2023-08-31T02:36:16;13.47;;;13.47;;
79751;SDS011;69234;47.446;21.636;2023-08-31T02:36:47;13.50;;;13.50;;
79751;SDS011;69234;47.446;21.636;2023-08-31T02:37:18;12.83;;;12.83;;
79751;SDS011;69234;47.446;21.636;2023-08-31T02:37:49;14.17;;;14.17;;
79751;SDS011;69234;47.446;21.636;2023-08-31T02:38:22;14.53;;;14.53;;
79751;SDS011;69234;47.446;21.636;2023-08-31T02:38:53;14.47;;;14.47;;
79751;SDS011;69234;47.446;21.636;2023-08-31T02:39:24;13.43;;;13.43;;
79751;SDS011;69234;47.446;21.636;2023-08-31T02:39:55;13.77;;;13.77;;
79751;SDS011;69234;47.446;21.636;2023-08-31T02:40:26;13.50;;;13.50;;
79751;SDS011;69234;47.446;21.636;2023-08-31T02:40:57;13.90;;;13.90;;
79751;SDS011;69234;47.446;21.636;2023-08-31T02:41:28;13.87;;;13.87;;
79751;SDS011;69234;47.446;21.636;2023-08-31T02:41:59;13.77;;;13.77;;
79751;SDS011;69234;47.446;21.636;2023-08-31T02:42:30;13.40;;;13.40;;
79751;SDS011;69234;47.446;21.636;2023-08-31T02:43:01;13.60;;;13.60;;
79751;SDS011;69234;47.446;21.636;2023-08-31T02:43:33;14.57;;;14.57;;
79751;SDS011;69234;47.446;21.636;2023-08-31T02:44:04;14.73;;;14.73;;
79751;SDS011;69234;47.446;21.636;2023-08-31T02:44:35;14.50;;;14.50;;
79751;SDS011;69234;47.446;21.636;2023-08-31T02:45:06;14.70;;;14.70;;
79751;SDS011;69234;47.446;21.636;2023-08-31T02:45:38;13.20;;;13.20;;
79751;SDS011;69234;47.446;21.636;2023-08-31T02:46:08;13.57;;;13.57;;
79751;SDS011;69234;47.446;21.636;2023-08-31T02:46:39;13.67;;;13.67;;
79751;SDS011;69234;47.446;21.636;2023-08-31T02:47:10;14.47;;;14.47;;
79751;SDS011;69234;47.446;21.636;2023-08-31T02:47:41;13.60;;;13.60;;
79751;SDS011;69234;47.446;21.636;2023-08-31T02:48:13;13.57;;;13.57;;
79751;SDS011;69234;47.446;21.636;2023-08-31T02:48:44;14.00;;;14.00;;
79751;SDS011;69234;47.446;21.636;2023-08-31T02:49:15;14.30;;;14.30;;
79751;SDS011;69234;47.446;21.636;2023-08-31T02:49:46;14.50;;;14.50;;
79751;SDS011;69234;47.446;21.636;2023-08-31T02:50:18;14.10;;;14.10;;
79751;SDS011;69234;47.446;21.636;2023-08-31T02:50:49;14.07;;;14.07;;
79751;SDS011;69234;47.446;21.636;2023-08-31T02:51:20;13.83;;;13.83;;
79751;SDS011;69234;47.446;21.636;2023-08-31T02:51:50;13.57;;;13.57;;
79751;SDS011;69234;47.446;21.636;2023-08-31T02:52:21;14.07;;;14.07;;
79751;SDS011;69234;47.446;21.636;2023-08-31T02:52:52;14.80;;;14.80;;
79751;SDS011;69234;47.446;21.636;2023-08-31T02:53:23;15.13;;;15.10;;
79751;SDS011;69234;47.446;21.636;2023-08-31T02:53:54;14.00;;;14.00;;
79751;SDS011;69234;47.446;21.636;2023-08-31T02:54:25;14.50;;;14.50;;
79751;SDS011;69234;47.446;21.636;2023-08-31T02:54:56;14.90;;;14.90;;
79751;SDS011;69234;47.446;21.636;2023-08-31T02:55:27;13.63;;;13.63;;
79751;SDS011;69234;47.446;21.636;2023-08-31T02:55:58;14.03;;;14.03;;
79751;SDS011;69234;47.446;21.636;2023-08-31T02:56:29;15.10;;;15.10;;
79751;SDS011;69234;47.446;21.636;2023-08-31T02:57:00;15.30;;;15.30;;
79751;SDS011;69234;47.446;21.636;2023-08-31T02:57:33;14.43;;;14.43;;
79751;SDS011;69234;47.446;21.636;2023-08-31T02:58:04;14.33;;;14.33;;
79751;SDS011;69234;47.446;21.636;2023-08-31T02:58:36;14.73;;;14.73;;
79751;SDS011;69234;47.446;21.636;2023-08-31T02:59:07;14.33;;;14.33;;
79751;SDS011;69234;47.446;21.636;2023-08-31T02:59:38;14.47;;;14.47;;
79751;SDS011;69234;47.446;21.636;2023-08-31T03:00:09;13.93;;;13.93;;
79751;SDS011;69234;47.446;21.636;2023-08-31T03:00:43;14.53;;;14.53;;
79751;SDS011;69234;47.446;21.636;2023-08-31T03:01:16;14.80;;;14.80;;
79751;SDS011;69234;47.446;21.636;2023-08-31T03:01:50;14.13;;;14.13;;
79751;SDS011;69234;47.446;21.636;2023-08-31T03:02:21;14.10;;;14.10;;
79751;SDS011;69234;47.446;21.636;2023-08-31T03:02:52;13.90;;;13.90;;
79751;SDS011;69234;47.446;21.636;2023-08-31T03:03:23;14.33;;;14.33;;
79751;SDS011;69234;47.446;21.636;2023-08-31T03:03:54;15.03;;;15.03;;
79751;SDS011;69234;47.446;21.636;2023-08-31T03:04:26;14.17;;;14.17;;
79751;SDS011;69234;47.446;21.636;2023-08-31T03:04:57;13.93;;;13.93;;
79751;SDS011;69234;47.446;21.636;2023-08-31T03:05:28;13.60;;;13.60;;
79751;SDS011;69234;47.446;21.636;2023-08-31T03:06:00;14.10;;;14.10;;
79751;SDS011;69234;47.446;21.636;2023-08-31T03:06:32;14.53;;;14.53;;
79751;SDS011;69234;47.446;21.636;2023-08-31T03:07:03;13.93;;;13.93;;
79751;SDS011;69234;47.446;21.636;2023-08-31T03:07:34;13.13;;;13.13;;
79751;SDS011;69234;47.446;21.636;2023-08-31T03:08:05;13.10;;;13.10;;
79751;SDS011;69234;47.446;21.636;2023-08-31T03:08:36;13.70;;;13.70;;
79751;SDS011;69234;47.446;21.636;2023-08-31T03:09:07;14.33;;;14.33;;
79751;SDS011;69234;47.446;21.636;2023-08-31T03:09:40;13.83;;;13.83;;
79751;SDS011;69234;47.446;21.636;2023-08-31T03:10:11;13.83;;;13.83;;
79751;SDS011;69234;47.446;21.636;2023-08-31T03:10:42;14.57;;;14.57;;
79751;SDS011;69234;47.446;21.636;2023-08-31T03:11:13;14.77;;;14.77;;
79751;SDS011;69234;47.446;21.636;2023-08-31T03:11:46;14.60;;;14.60;;
79751;SDS011;69234;47.446;21.636;2023-08-31T03:12:17;14.27;;;14.27;;
79751;SDS011;69234;47.446;21.636;2023-08-31T03:12:48;14.17;;;14.17;;
79751;SDS011;69234;47.446;21.636;2023-08-31T03:13:20;14.23;;;14.23;;
79751;SDS011;69234;47.446;21.636;2023-08-31T03:13:50;14.50;;;14.50;;
79751;SDS011;69234;47.446;21.636;2023-08-31T03:14:22;14.23;;;14.23;;
79751;SDS011;69234;47.446;21.636;2023-08-31T03:14:53;14.20;;;14.20;;
79751;SDS011;69234;47.446;21.636;2023-08-31T03:15:24;14.00;;;14.00;;
79751;SDS011;69234;47.446;21.636;2023-08-31T03:15:55;14.60;;;14.60;;
79751;SDS011;69234;47.446;21.636;2023-08-31T03:16:28;14.30;;;14.30;;
79751;SDS011;69234;47.446;21.636;2023-08-31T03:16:59;14.07;;;14.07;;
79751;SDS011;69234;47.446;21.636;2023-08-31T03:17:32;14.13;;;14.13;;
79751;SDS011;69234;47.446;21.636;2023-08-31T03:18:03;13.87;;;13.87;;
79751;SDS011;69234;47.446;21.636;2023-08-31T03:18:34;15.17;;;15.17;;
79751;SDS011;69234;47.446;21.636;2023-08-31T03:19:05;14.10;;;14.10;;